Southport Airport
CYPG : rendu visible

Aérodrome :











RETROUVEZ-NOUS SUR...

 
LOGIN :

S'inscrire | Disclaimer

   EN    FR    IT 

 









Légende :    VFR   VFR Marginal   IFR   IFR Intensif   IFR Très Intensif
Visi : 
Plafond : 
>= 8 km
>= 3000ft
5 à 8 km
1000 à 3000 ft
1500m à 5 km
500 à 1000 ft
800 à 1500m
200 à 500 ft
< 800m
< 200 ft
Symboles :   Orages  Brouillard  Fortes neiges  Fortes précipitations  Vent > 20 kt






- Altitude de l'aérodrome : 885 ft
- Code IATA : YPG


CYPG - Southport

DERNIER METAR :
  • 121800Z 17014G19KT 15SM BKN240 M09/M14 A2992 RMK CI6 SLP156

METARs EXPIRÉS :
  • 121700Z 15016G21KT 15SM DRSN FEW180 BKN240 M11/M15 A2996 RMK AC1CI6 SLP170
  • 121600Z 15015G22KT 15SM DRSN FEW180 SCT240 M12/M17 A2999 RMK AC1CI3 SLP180

TAF TAF CYPG
Valide du 12 à 18h jusqu'au 13 à 06h UTC


121730Z 1218/1306 15015G25KT P6SM FEW180 BKN240
FM122200 17012KT P6SM FEW030 OVC180
BECMG 1223/1301 17005KT
BECMG 1304/1306 29005KT RMK NXT FCST BY 130000Z



MET'MAP, la Météo Aéronautique d'un coup d'oeil ! - Copyright ORBIFLY Décembre 2007 - Disclaimer

ORBIFLY MET'MAP TEAM :

Programmation & Développement : Alexandra Zaïnal
Conception & Développement : Baudouin d'Aumeries
Co-Programmation & Développement : Marc-Olivier Méhu
Soutien technique & logistique : Manuel Goepfert

Contact : metmap@orbifly.com




SOURCES & CREDITS :

   NOAA       Earth
Advisory